Airfield :
LOGIN :

Register | Disclaimer

   EN    FR    IT 

 










Legend :    VFR   Marginal VFR   IFR   Intensive IFR   Very Intensive IFR
Visi :
Ceiling :
>= 8 km
>= 3000ft
5 to 8 km
1000 to 3000 ft
1500m to 5 km
500 to 1000 ft
800 to 1500m
200 to 500 ft
< 800m
< 200 ft
Symbols :   Thunderstorms  Fog  Heavy snow  Heavy precipitations  Wind > 20 kt
SIGMETs :     Misc.  Thunderstorms  Icing  Turbulence  Mountain Waves  Volcanic Ashes







- Airport Elevation : -15 ft
- IATA code : RTM


EHRD - Rotterdam Zestienhoven

CURRENT METAR :
  • 171355Z AUTO 18007KT 110V240 9999 SCT048 25/13 Q1018 NOSIG

EXPIRED METARs :
  • 171325Z AUTO 17007KT 090V230 9999 NSC 25/14 Q1018 NOSIG
  • 171255Z AUTO 21008KT 140V260 9999 FEW047 25/14 Q1018 NOSIG
  • 171225Z AUTO 20009KT 160V240 9999 FEW048 24/13 Q1018 NOSIG
  • 171155Z AUTO 20009KT 120V260 9999 FEW045 24/12 Q1019 NOSIG
  • 171125Z AUTO 19010KT 130V240 9999 NCD 24/12 Q1019 NOSIG

TAF TAF EHRD
Valid from the 17 at 12:00 until the 18 at 18:00 UTC


171055Z 1712/1818 19012KT 9999 SCT035
BECMG 1715/1718 31007KT
BECMG 1719/1722 VRB03KT CAVOK
BECMG 1815/1818 06008KT
No reported NOTAMs for that airfield.



MET'MAP, your aeronautical weather chart ! - Copyright ORBIFLY December 2007 - Disclaimer

ORBIFLY MET'MAP TEAM :

Programming & Development : Alexandra Zaïnal
Concept & Development : Baudouin d'Aumeries
Co-Development & Prog : Marc-Olivier Méhu
Technical & hardware support : Manuel Goepfert

Contact : metmap@orbifly.com




SOURCES & CREDITS :

   NOAA